METAR / TAF
Helsinki-Vantaa
HELSINKI/VANTAA
Metar
EFHK 241620Z 08007G17KT 9999 BKN014 10/07 Q1009 NOSIG

16:20 UTC

Wind: 80° 7kt

Visibility: 9999 m

Sky: BKN 1400 ft

Temp: 10 deg C / 50 deg F

Dewpoint: 7 deg C / 44.6 deg F

Pressure: 1009 hPa

TAF
TAF EFHK 241425Z 2415/2515 10009KT 9999 SCT012 BKN020 TEMPO 2415/2421 BKN012 PROB30 TEMPO 2421/2504 4000 BR BKN004 TEMPO 2506/2512 SHRA BKN012 FEW040CB BECMG 2512/2514 25010KT
Helsinki, Malmi
HELSINKI/MALMI
Turku
TURKU/ABO
Metar
EFTU 241620Z AUTO 12008KT 090V150 9999 FEW020/// SCT027/// 14/09 Q1007

16:20 UTC

Wind: 120° 8kt

Visibility: 9999 m

Sky: FEW 2000 ft

Temp: 14 deg C / 57.2 deg F

Dewpoint: 9 deg C / 48.2 deg F

Pressure: 1007 hPa

TAF
TAF EFTU 241425Z 2415/2515 10006KT 9999 BKN020 TEMPO 2500/2506 BKN008 TEMPO 2506/2512 SHRA SCT040CB
Tampere, Pirkkala
TAMPERE/PIRKKALA
Metar
EFTP 241620Z AUTO 16006KT 110V180 9999 BKN015 OVC019 11/07 Q1009

16:20 UTC

Wind: 160° 6kt

Visibility: 9999 m

Sky: BKN 1500 ft

Temp: 11 deg C / 51.8 deg F

Dewpoint: 7 deg C / 44.6 deg F

Pressure: 1009 hPa

TAF
TAF EFTP 241425Z 2415/2515 15008KT 9999 BKN025 PROB30 TEMPO 2415/2421 BKN012 TEMPO 2503/2514 4000 -SHRA BKN006 BKN050CB BECMG 2512/2514 30010KT
Maarianhamina
MARIEHAMN/ALAND
Metar
EFMA 241620Z AUTO 14012KT CAVOK 12/09 Q1005

16:20 UTC

Wind: 140° 12kt

Visibility:

Sky:

Temp: 12 deg C / 53.6 deg F

Dewpoint: 9 deg C / 48.2 deg F

Pressure: 1005 hPa

TAF
TAF EFMA 241425Z 2415/2424 16009KT CAVOK TEMPO 2418/2424 FEW040CB
Pori
PORI (MIL/CIV)
Metar
EFPO 241620Z AUTO 11007KT 080V140 9999 FEW015/// SCT026/// 13/09 Q1007

16:20 UTC

Wind: 110° 7kt

Visibility: 9999 m

Sky: FEW 1500 ft

Temp: 13 deg C / 55.4 deg F

Dewpoint: 9 deg C / 48.2 deg F

Pressure: 1007 hPa

TAF
TAF EFPO 241135Z 2412/2415 15007KT 9999 BKN018
Vaasa
VAASA
Metar
EFVA 241620Z AUTO 29005KT 9999 BKN021/// 10/07 Q1008

16:20 UTC

Wind: 290° 5kt

Visibility: 9999 m

Sky: BKN 2100 ft

Temp: 10 deg C / 50 deg F

Dewpoint: 7 deg C / 44.6 deg F

Pressure: 1008 hPa

TAF
TAF EFVA 241435Z 2415/2515 26007KT 9999 BKN010 BECMG 2415/2417 BKN015 TEMPO 2418/2500 2500 BR BKN002 BECMG 2500/2502 BKN005 TEMPO 2502/2514 5000 RA BKN003
Kruunupyy
KRUUNUPYY
Metar
EFKK 241620Z 24006KT 200V280 9999 FEW004 OVC029 09/08 Q1007

16:20 UTC

Wind: 240° 6kt

Visibility: 9999 m

Sky: FEW 400 ft

Temp: 9 deg C / 48.2 deg F

Dewpoint: 8 deg C / 46.4 deg F

Pressure: 1007 hPa

TAF
TAF EFKK 241435Z 2415/2423 16008KT 9999 BKN007 TEMPO 2415/2418 4000 DZ BKN004 BECMG 2418/2420 3000 -DZ BKN002 TEMPO 2420/2423 0500 FG BKN001
Jyväskylä, Tikkakoski
JYVASKYLA (MIL/C
Metar
EFJY 241620Z AUTO 09007KT 9999 OVC035 09/05 Q1009

16:20 UTC

Wind: 90° 7kt

Visibility: 9999 m

Sky: OVC 3500 ft

Temp: 9 deg C / 48.2 deg F

Dewpoint: 5 deg C / 41 deg F

Pressure: 1009 hPa

TAF
TAF EFJY 241425Z 2415/2515 11010KT 9999 BKN025 PROB30 TEMPO 2500/2506 7000 -RA BKN007 TEMPO 2506/2515 4000 -SHRA BKN007 BKN050CB
Kuopio
KUOPIO (MIL/CIV)
Metar
EFKU 241620Z AUTO 12006KT 080V150 CAVOK 06/02 Q1011

16:20 UTC

Wind: 120° 6kt

Visibility:

Sky:

Temp: 6 deg C / 42.8 deg F

Dewpoint: 2 deg C / 35.6 deg F

Pressure: 1011 hPa

TAF
TAF EFKU 241431Z 2415/2515 13009KT 9999 SCT015 OVC040 TEMPO 2508/2513 SCT040CB TEMPO 2513/2515 5000 SHRA BKN030CB
Joensuu
JOENSUU
Metar
EFJO 241620Z AUTO 03003KT 9999 OVC046 06/03 Q1012

16:20 UTC

Wind: 30° 3kt

Visibility: 9999 m

Sky: OVC 4600 ft

Temp: 6 deg C / 42.8 deg F

Dewpoint: 3 deg C / 37.4 deg F

Pressure: 1012 hPa

TAF
TAF EFJO 241431Z 2415/2423 11004KT 9999 -RA SCT025 OVC045
Halli
HALLI (FIN-AFB)
Metar
EFHA 241620Z AUTO 13008KT 9999 OVC038 11/04 Q1008

16:20 UTC

Wind: 130° 8kt

Visibility: 9999 m

Sky: OVC 3800 ft

Temp: 11 deg C / 51.8 deg F

Dewpoint: 4 deg C / 39.2 deg F

Pressure: 1008 hPa

TAF
TAF EFHA 241135Z 2412/2414 13007KT 9999 BKN015 PROB30 TEMPO 2412/2414 BKN012
Utti
UTTI (FIN-AFB)
Metar
EFUT 241620Z AUTO 11008KT 9999 OVC037 10/05 Q1009

16:20 UTC

Wind: 110° 8kt

Visibility: 9999 m

Sky: OVC 3700 ft

Temp: 10 deg C / 50 deg F

Dewpoint: 5 deg C / 41 deg F

Pressure: 1009 hPa

TAF
TAF EFUT 241431Z 2415/2418 12007KT 9999 OVC040
Mikkeli
MIKKELI
Metar
EFMI 241620Z AUTO 11008KT 070V140 CAVOK 10/03 Q1010

16:20 UTC

Wind: 110° 8kt

Visibility:

Sky:

Temp: 10 deg C / 50 deg F

Dewpoint: 3 deg C / 37.4 deg F

Pressure: 1010 hPa

Savonlinna
SAVONLINNA (AUT)
Metar
EFSA 241620Z AUTO 11008KT 080V140 CAVOK 09/01 Q1011

16:20 UTC

Wind: 110° 8kt

Visibility:

Sky:

Temp: 9 deg C / 48.2 deg F

Dewpoint: 1 deg C / 33.8 deg F

Pressure: 1011 hPa

TAF
TAF EFSA 241431Z 2415/2419 11007KT CAVOK
Lappeenranta
LAPPEENRANTA
Metar
EFLP 241620Z AUTO 08005KT 050V110 9999 OVC043 08/04 Q1010

16:20 UTC

Wind: 80° 5kt

Visibility: 9999 m

Sky: OVC 4300 ft

Temp: 8 deg C / 46.4 deg F

Dewpoint: 4 deg C / 39.2 deg F

Pressure: 1010 hPa

Oulu
OULU/ULEABORG
Metar
EFOU 241620Z AUTO 13011KT 9999 -RA BKN005/// OVC011/// 06/05 Q1009

16:20 UTC

Wind: 130° 11kt

Visibility: 9999 m

Sky: BKN 500 ft

Temp: 6 deg C / 42.8 deg F

Dewpoint: 5 deg C / 41 deg F

Pressure: 1009 hPa

TAF
TAF AMD EFOU 241525Z 2415/2515 12014KT 9999 OVC010 TEMPO 2415/2418 2500 DZ BKN004 TEMPO 2418/2502 BKN015 BECMG 2502/2504 BKN008 TEMPO 2504/2509 4000 -RADZ BKN004 BECMG 2509/2511 BKN015 TEMPO 2511/2515 7000 SHRA SCT020CB
Kemi
KEMI
Metar
EFKE 241620Z AUTO 10008KT 7000 -RA OVC008 05/05 Q1010

16:20 UTC

Wind: 100° 8kt

Visibility: 7000 m

Sky: OVC 800 ft

Temp: 5 deg C / 41 deg F

Dewpoint: 5 deg C / 41 deg F

Pressure: 1010 hPa

TAF
TAF EFKE 241435Z 2415/2424 12008KT 9999 -RA BKN015 TEMPO 2415/2418 2500 -DZ BKN005 BECMG 2418/2420 BKN007 TEMPO 2420/2424 2500 -DZ BKN004
Rovaniemi
ROVANIEMI (CIV/M
Metar
EFRO 241620Z AUTO 18011KT 130V210 CAVOK 06/01 Q1010

16:20 UTC

Wind: 180° 11kt

Visibility:

Sky:

Temp: 6 deg C / 42.8 deg F

Dewpoint: 1 deg C / 33.8 deg F

Pressure: 1010 hPa

TAF
TAF EFRO 241435Z 2415/2515 16012KT CAVOK TEMPO 2416/2420 OVC008 BECMG 2420/2422 10007KT BKN006 TEMPO 2422/2510 2500 -RADZ BKN002 TEMPO 2512/2515 BKN010
Enontekiö
ENONTEKIO
Metar
EFET 241620Z AUTO 19003KT CAVOK 10/M05 Q1008

16:20 UTC

Wind: 190° 3kt

Visibility:

Sky:

Temp: 10 deg C / 50 deg F

Dewpoint: -5 deg C / 23 deg F

Pressure: 1008 hPa

Ivalo
IVALO
Metar
EFIV 241620Z AUTO 17006KT 140V210 CAVOK 10/M05 Q1009

16:20 UTC

Wind: 170° 6kt

Visibility:

Sky:

Temp: 10 deg C / 50 deg F

Dewpoint: -5 deg C / 23 deg F

Pressure: 1009 hPa

TAF
TAF EFIV 241135Z 2412/2416 15004KT CAVOK
Kittilä
KITTILA
Metar
EFKT 241620Z 17003KT 130V200 CAVOK 11/M04 Q1008

16:20 UTC

Wind: 170° 3kt

Visibility:

Sky:

Temp: 11 deg C / 51.8 deg F

Dewpoint: -4 deg C / 24.8 deg F

Pressure: 1008 hPa

TAF
TAF EFKT 241435Z 2415/2417 15006KT CAVOK
Kuusamo
KUUSAMO
Metar
EFKS 241620Z AUTO 21010KT CAVOK 09/M03 Q1010

16:20 UTC

Wind: 210° 10kt

Visibility:

Sky:

Temp: 9 deg C / 48.2 deg F

Dewpoint: -3 deg C / 26.6 deg F

Pressure: 1010 hPa

TAF
TAF EFKS 241435Z 2415/2420 17010KT CAVOK
Kajaani
KAJAANI
Metar
EFKI 241620Z AUTO 16010KT 130V200 9999 FEW023 OVC036 06/01 Q1010

16:20 UTC

Wind: 160° 10kt

Visibility: 9999 m

Sky: FEW 2300 ft

Temp: 6 deg C / 42.8 deg F

Dewpoint: 1 deg C / 33.8 deg F

Pressure: 1010 hPa

TAF
TAF EFKI 241431Z 2415/2421 16006KT 9999 -RA BKN013 OVC030 BECMG 2415/2417 OVC030
Varkaus
VARKAUS
Seinäjoki
SEINAJOKI-ILMAJO
Metar
EFSI 241620Z AUTO 18005KT 140V230 9999 BKN049 13/08 Q1007

16:20 UTC

Wind: 180° 5kt

Visibility: 9999 m

Sky: BKN 4900 ft

Temp: 13 deg C / 55.4 deg F

Dewpoint: 8 deg C / 46.4 deg F

Pressure: 1007 hPa

Print Friendly, PDF & Email